sensor_id;sensor_type;location;lat;lon;timestamp;P1;durP1;ratioP1;P2;durP2;ratioP2
70455;SDS011;57916;51.996;5.180;2023-05-07T00:02:00;20.02;;;15.43;;
70455;SDS011;57916;51.996;5.180;2023-05-07T00:04:27;18.35;;;14.93;;
70455;SDS011;57916;51.996;5.180;2023-05-07T00:06:54;23.17;;;14.80;;
70455;SDS011;57916;51.996;5.180;2023-05-07T00:09:21;16.90;;;14.30;;
70455;SDS011;57916;51.996;5.180;2023-05-07T00:11:48;19.52;;;14.10;;
70455;SDS011;57916;51.996;5.180;2023-05-07T00:14:15;20.05;;;13.63;;
70455;SDS011;57916;51.996;5.180;2023-05-07T00:16:42;16.20;;;13.25;;
70455;SDS011;57916;51.996;5.180;2023-05-07T00:19:09;17.77;;;13.20;;
70455;SDS011;57916;51.996;5.180;2023-05-07T00:21:37;16.98;;;13.43;;
70455;SDS011;57916;51.996;5.180;2023-05-07T00:24:04;17.58;;;13.07;;
70455;SDS011;57916;51.996;5.180;2023-05-07T00:26:31;17.27;;;12.97;;
70455;SDS011;57916;51.996;5.180;2023-05-07T00:28:58;16.83;;;12.93;;
70455;SDS011;57916;51.996;5.180;2023-05-07T00:31:25;15.27;;;12.43;;
70455;SDS011;57916;51.996;5.180;2023-05-07T00:33:52;18.75;;;13.27;;
70455;SDS011;57916;51.996;5.180;2023-05-07T00:36:19;14.50;;;12.63;;
70455;SDS011;57916;51.996;5.180;2023-05-07T00:38:46;17.65;;;12.73;;
70455;SDS011;57916;51.996;5.180;2023-05-07T00:41:13;14.90;;;12.13;;
70455;SDS011;57916;51.996;5.180;2023-05-07T00:43:40;15.13;;;12.68;;
70455;SDS011;57916;51.996;5.180;2023-05-07T00:46:07;15.25;;;12.43;;
70455;SDS011;57916;51.996;5.180;2023-05-07T00:48:34;17.17;;;12.23;;
70455;SDS011;57916;51.996;5.180;2023-05-07T00:51:01;15.60;;;12.48;;
70455;SDS011;57916;51.996;5.180;2023-05-07T00:53:28;14.18;;;12.13;;
70455;SDS011;57916;51.996;5.180;2023-05-07T00:55:55;14.85;;;11.98;;
70455;SDS011;57916;51.996;5.180;2023-05-07T00:58:22;14.52;;;12.13;;
70455;SDS011;57916;51.996;5.180;2023-05-07T01:00:51;13.30;;;11.90;;
70455;SDS011;57916;51.996;5.180;2023-05-07T01:03:18;15.55;;;11.68;;
70455;SDS011;57916;51.996;5.180;2023-05-07T01:05:45;15.00;;;11.60;;
70455;SDS011;57916;51.996;5.180;2023-05-07T01:08:14;16.48;;;11.52;;
70455;SDS011;57916;51.996;5.180;2023-05-07T01:10:44;13.98;;;11.98;;
70455;SDS011;57916;51.996;5.180;2023-05-07T01:13:13;14.43;;;11.50;;
70455;SDS011;57916;51.996;5.180;2023-05-07T01:15:41;15.13;;;11.65;;
70455;SDS011;57916;51.996;5.180;2023-05-07T01:18:08;13.95;;;11.57;;
70455;SDS011;57916;51.996;5.180;2023-05-07T01:20:36;12.90;;;11.52;;
70455;SDS011;57916;51.996;5.180;2023-05-07T01:23:03;14.30;;;11.43;;
70455;SDS011;57916;51.996;5.180;2023-05-07T01:25:31;13.68;;;11.65;;
70455;SDS011;57916;51.996;5.180;2023-05-07T01:28:00;14.02;;;11.40;;
70455;SDS011;57916;51.996;5.180;2023-05-07T01:30:31;15.38;;;11.98;;
70455;SDS011;57916;51.996;5.180;2023-05-07T01:33:04;13.55;;;11.38;;
70455;SDS011;57916;51.996;5.180;2023-05-07T01:35:43;13.55;;;10.75;;
70455;SDS011;57916;51.996;5.180;2023-05-07T01:38:13;12.43;;;10.57;;
70455;SDS011;57916;51.996;5.180;2023-05-07T01:40:40;13.93;;;11.23;;
70455;SDS011;57916;51.996;5.180;2023-05-07T01:43:08;14.70;;;11.80;;
70455;SDS011;57916;51.996;5.180;2023-05-07T01:45:36;14.48;;;11.18;;
70455;SDS011;57916;51.996;5.180;2023-05-07T01:48:05;16.42;;;11.48;;
70455;SDS011;57916;51.996;5.180;2023-05-07T01:50:33;15.55;;;11.80;;
70455;SDS011;57916;51.996;5.180;2023-05-07T01:53:01;13.52;;;11.32;;
70455;SDS011;57916;51.996;5.180;2023-05-07T01:55:28;16.83;;;12.05;;
70455;SDS011;57916;51.996;5.180;2023-05-07T01:57:55;13.90;;;11.95;;
70455;SDS011;57916;51.996;5.180;2023-05-07T02:00:22;14.88;;;12.18;;
70455;SDS011;57916;51.996;5.180;2023-05-07T02:02:49;14.77;;;11.93;;
70455;SDS011;57916;51.996;5.180;2023-05-07T02:05:31;18.08;;;12.50;;
70455;SDS011;57916;51.996;5.180;2023-05-07T02:08:07;15.75;;;11.80;;
70455;SDS011;57916;51.996;5.180;2023-05-07T02:10:34;15.90;;;12.18;;
70455;SDS011;57916;51.996;5.180;2023-05-07T02:13:04;15.77;;;12.23;;
70455;SDS011;57916;51.996;5.180;2023-05-07T02:15:31;17.50;;;12.10;;
70455;SDS011;57916;51.996;5.180;2023-05-07T02:18:02;16.20;;;11.63;;
70455;SDS011;57916;51.996;5.180;2023-05-07T02:20:35;13.97;;;11.60;;
70455;SDS011;57916;51.996;5.180;2023-05-07T02:23:02;15.30;;;11.93;;
70455;SDS011;57916;51.996;5.180;2023-05-07T02:25:29;17.23;;;12.18;;
70455;SDS011;57916;51.996;5.180;2023-05-07T02:27:56;16.17;;;11.97;;
70455;SDS011;57916;51.996;5.180;2023-05-07T02:30:35;16.00;;;11.98;;
70455;SDS011;57916;51.996;5.180;2023-05-07T02:33:03;15.50;;;11.70;;
70455;SDS011;57916;51.996;5.180;2023-05-07T02:35:30;15.63;;;12.18;;
70455;SDS011;57916;51.996;5.180;2023-05-07T02:37:57;16.38;;;12.23;;
70455;SDS011;57916;51.996;5.180;2023-05-07T02:40:24;18.05;;;12.60;;
70455;SDS011;57916;51.996;5.180;2023-05-07T02:42:51;13.50;;;12.10;;
70455;SDS011;57916;51.996;5.180;2023-05-07T02:45:18;15.65;;;13.05;;
70455;SDS011;57916;51.996;5.180;2023-05-07T02:47:47;16.00;;;13.70;;
70455;SDS011;57916;51.996;5.180;2023-05-07T02:50:15;19.35;;;13.27;;
70455;SDS011;57916;51.996;5.180;2023-05-07T02:52:42;17.27;;;13.38;;
70455;SDS011;57916;51.996;5.180;2023-05-07T02:55:09;15.98;;;13.27;;
70455;SDS011;57916;51.996;5.180;2023-05-07T02:57:36;15.73;;;13.40;;
70455;SDS011;57916;51.996;5.180;2023-05-07T03:00:10;19.98;;;13.45;;
70455;SDS011;57916;51.996;5.180;2023-05-07T03:02:49;20.15;;;13.10;;
70455;SDS011;57916;51.996;5.180;2023-05-07T03:05:16;14.73;;;13.07;;
70455;SDS011;57916;51.996;5.180;2023-05-07T03:07:43;16.73;;;13.00;;
70455;SDS011;57916;51.996;5.180;2023-05-07T03:10:13;16.67;;;13.37;;
70455;SDS011;57916;51.996;5.180;2023-05-07T03:12:40;17.27;;;13.32;;
70455;SDS011;57916;51.996;5.180;2023-05-07T03:15:08;17.45;;;13.82;;
70455;SDS011;57916;51.996;5.180;2023-05-07T03:17:36;18.05;;;13.45;;
70455;SDS011;57916;51.996;5.180;2023-05-07T03:20:04;19.00;;;14.27;;
70455;SDS011;57916;51.996;5.180;2023-05-07T03:22:31;16.83;;;14.20;;
70455;SDS011;57916;51.996;5.180;2023-05-07T03:24:58;20.40;;;13.88;;
70455;SDS011;57916;51.996;5.180;2023-05-07T03:27:26;17.63;;;14.23;;
70455;SDS011;57916;51.996;5.180;2023-05-07T03:29:53;21.10;;;14.25;;
70455;SDS011;57916;51.996;5.180;2023-05-07T03:32:20;17.10;;;13.85;;
70455;SDS011;57916;51.996;5.180;2023-05-07T03:34:47;18.75;;;14.75;;
70455;SDS011;57916;51.996;5.180;2023-05-07T03:37:14;20.00;;;15.05;;
70455;SDS011;57916;51.996;5.180;2023-05-07T03:39:42;17.58;;;14.20;;
70455;SDS011;57916;51.996;5.180;2023-05-07T03:42:09;19.13;;;14.35;;
70455;SDS011;57916;51.996;5.180;2023-05-07T03:44:36;22.17;;;15.80;;
70455;SDS011;57916;51.996;5.180;2023-05-07T03:47:04;20.98;;;15.73;;
70455;SDS011;57916;51.996;5.180;2023-05-07T03:49:31;20.65;;;15.88;;
70455;SDS011;57916;51.996;5.180;2023-05-07T03:51:58;21.60;;;16.20;;
70455;SDS011;57916;51.996;5.180;2023-05-07T03:54:25;21.65;;;16.83;;
70455;SDS011;57916;51.996;5.180;2023-05-07T03:56:52;20.35;;;16.85;;
70455;SDS011;57916;51.996;5.180;2023-05-07T03:59:20;22.23;;;16.97;;
70455;SDS011;57916;51.996;5.180;2023-05-07T04:01:48;25.92;;;17.90;;
70455;SDS011;57916;51.996;5.180;2023-05-07T04:04:17;26.00;;;17.92;;
70455;SDS011;57916;51.996;5.180;2023-05-07T04:06:45;23.88;;;17.80;;
70455;SDS011;57916;51.996;5.180;2023-05-07T04:09:12;25.25;;;17.85;;
70455;SDS011;57916;51.996;5.180;2023-05-07T04:11:39;23.95;;;16.88;;
70455;SDS011;57916;51.996;5.180;2023-05-07T04:14:08;22.98;;;17.70;;
70455;SDS011;57916;51.996;5.180;2023-05-07T04:16:36;24.05;;;17.48;;
70455;SDS011;57916;51.996;5.180;2023-05-07T04:19:03;24.13;;;17.63;;
70455;SDS011;57916;51.996;5.180;2023-05-07T04:21:31;21.40;;;16.88;;
70455;SDS011;57916;51.996;5.180;2023-05-07T04:23:58;24.17;;;18.02;;
70455;SDS011;57916;51.996;5.180;2023-05-07T04:26:25;24.73;;;17.38;;
70455;SDS011;57916;51.996;5.180;2023-05-07T04:28:52;22.00;;;17.90;;
70455;SDS011;57916;51.996;5.180;2023-05-07T04:31:19;26.15;;;18.10;;
70455;SDS011;57916;51.996;5.180;2023-05-07T04:33:50;27.45;;;17.80;;
70455;SDS011;57916;51.996;5.180;2023-05-07T04:36:18;22.02;;;17.48;;
70455;SDS011;57916;51.996;5.180;2023-05-07T04:38:55;25.27;;;18.10;;
70455;SDS011;57916;51.996;5.180;2023-05-07T04:41:22;24.25;;;17.23;;
70455;SDS011;57916;51.996;5.180;2023-05-07T04:43:49;23.57;;;18.17;;
70455;SDS011;57916;51.996;5.180;2023-05-07T04:46:18;23.35;;;17.45;;
70455;SDS011;57916;51.996;5.180;2023-05-07T04:48:46;25.13;;;18.38;;
70455;SDS011;57916;51.996;5.180;2023-05-07T04:51:13;26.42;;;17.83;;
70455;SDS011;57916;51.996;5.180;2023-05-07T04:53:40;22.88;;;17.67;;
70455;SDS011;57916;51.996;5.180;2023-05-07T04:56:07;24.75;;;17.90;;
70455;SDS011;57916;51.996;5.180;2023-05-07T04:58:41;21.98;;;17.67;;
70455;SDS011;57916;51.996;5.180;2023-05-07T05:01:09;26.48;;;18.25;;
70455;SDS011;57916;51.996;5.180;2023-05-07T05:03:37;23.97;;;18.60;;
70455;SDS011;57916;51.996;5.180;2023-05-07T05:06:06;25.42;;;18.00;;
70455;SDS011;57916;51.996;5.180;2023-05-07T05:08:33;25.45;;;18.02;;
70455;SDS011;57916;51.996;5.180;2023-05-07T05:11:02;23.95;;;17.55;;
70455;SDS011;57916;51.996;5.180;2023-05-07T05:13:31;23.48;;;17.10;;
70455;SDS011;57916;51.996;5.180;2023-05-07T05:16:01;25.70;;;18.10;;
70455;SDS011;57916;51.996;5.180;2023-05-07T05:18:30;24.08;;;18.00;;
70455;SDS011;57916;51.996;5.180;2023-05-07T05:20:57;26.17;;;18.10;;
70455;SDS011;57916;51.996;5.180;2023-05-07T05:23:25;24.52;;;18.40;;
70455;SDS011;57916;51.996;5.180;2023-05-07T05:25:56;23.38;;;18.38;;
70455;SDS011;57916;51.996;5.180;2023-05-07T05:28:29;25.38;;;17.63;;
70455;SDS011;57916;51.996;5.180;2023-05-07T05:30:56;24.42;;;18.60;;
70455;SDS011;57916;51.996;5.180;2023-05-07T05:33:25;23.48;;;17.90;;
70455;SDS011;57916;51.996;5.180;2023-05-07T05:35:55;23.33;;;18.17;;
70455;SDS011;57916;51.996;5.180;2023-05-07T05:38:22;26.83;;;17.88;;
70455;SDS011;57916;51.996;5.180;2023-05-07T05:40:50;27.00;;;18.17;;
70455;SDS011;57916;51.996;5.180;2023-05-07T05:43:17;24.43;;;17.97;;
70455;SDS011;57916;51.996;5.180;2023-05-07T05:45:44;23.92;;;17.38;;
70455;SDS011;57916;51.996;5.180;2023-05-07T05:48:11;24.35;;;18.02;;
70455;SDS011;57916;51.996;5.180;2023-05-07T05:50:39;25.48;;;18.48;;
70455;SDS011;57916;51.996;5.180;2023-05-07T05:53:06;27.45;;;18.55;;
70455;SDS011;57916;51.996;5.180;2023-05-07T05:55:33;23.55;;;17.98;;
70455;SDS011;57916;51.996;5.180;2023-05-07T05:58:01;24.02;;;16.90;;
70455;SDS011;57916;51.996;5.180;2023-05-07T06:00:29;20.95;;;16.80;;
70455;SDS011;57916;51.996;5.180;2023-05-07T06:03:01;24.40;;;18.10;;
70455;SDS011;57916;51.996;5.180;2023-05-07T06:05:28;21.43;;;17.37;;
70455;SDS011;57916;51.996;5.180;2023-05-07T06:07:56;23.57;;;16.93;;
70455;SDS011;57916;51.996;5.180;2023-05-07T06:10:25;24.25;;;17.02;;
70455;SDS011;57916;51.996;5.180;2023-05-07T06:12:54;23.35;;;17.30;;
70455;SDS011;57916;51.996;5.180;2023-05-07T06:15:21;22.58;;;17.67;;
70455;SDS011;57916;51.996;5.180;2023-05-07T06:17:48;25.15;;;18.90;;
70455;SDS011;57916;51.996;5.180;2023-05-07T06:20:16;23.33;;;18.42;;
70455;SDS011;57916;51.996;5.180;2023-05-07T06:22:43;25.05;;;18.73;;
70455;SDS011;57916;51.996;5.180;2023-05-07T06:25:12;29.00;;;20.40;;
70455;SDS011;57916;51.996;5.180;2023-05-07T06:27:41;28.45;;;19.90;;
70455;SDS011;57916;51.996;5.180;2023-05-07T06:30:08;27.15;;;19.27;;
70455;SDS011;57916;51.996;5.180;2023-05-07T06:32:36;26.88;;;19.40;;
70455;SDS011;57916;51.996;5.180;2023-05-07T06:35:03;29.63;;;19.88;;
70455;SDS011;57916;51.996;5.180;2023-05-07T06:37:33;31.35;;;20.67;;
70455;SDS011;57916;51.996;5.180;2023-05-07T06:40:04;26.17;;;19.63;;
70455;SDS011;57916;51.996;5.180;2023-05-07T06:42:35;28.60;;;20.73;;
70455;SDS011;57916;51.996;5.180;2023-05-07T06:45:20;27.60;;;19.50;;
70455;SDS011;57916;51.996;5.180;2023-05-07T06:47:48;26.90;;;18.70;;
70455;SDS011;57916;51.996;5.180;2023-05-07T06:50:15;26.15;;;19.10;;
70455;SDS011;57916;51.996;5.180;2023-05-07T06:52:43;26.33;;;19.50;;
70455;SDS011;57916;51.996;5.180;2023-05-07T06:55:11;30.05;;;19.40;;
70455;SDS011;57916;51.996;5.180;2023-05-07T06:57:38;26.13;;;18.92;;
70455;SDS011;57916;51.996;5.180;2023-05-07T07:00:05;25.33;;;18.38;;
70455;SDS011;57916;51.996;5.180;2023-05-07T07:02:45;28.17;;;18.55;;
70455;SDS011;57916;51.996;5.180;2023-05-07T07:05:14;28.55;;;18.85;;
70455;SDS011;57916;51.996;5.180;2023-05-07T07:07:41;25.13;;;17.80;;
70455;SDS011;57916;51.996;5.180;2023-05-07T07:10:09;25.80;;;18.20;;
70455;SDS011;57916;51.996;5.180;2023-05-07T07:12:36;27.67;;;19.20;;
70455;SDS011;57916;51.996;5.180;2023-05-07T07:15:03;25.40;;;19.00;;
70455;SDS011;57916;51.996;5.180;2023-05-07T07:17:31;28.77;;;19.55;;
70455;SDS011;57916;51.996;5.180;2023-05-07T07:19:58;26.35;;;18.77;;
70455;SDS011;57916;51.996;5.180;2023-05-07T07:22:25;26.75;;;19.02;;
70455;SDS011;57916;51.996;5.180;2023-05-07T07:24:52;28.38;;;19.35;;
70455;SDS011;57916;51.996;5.180;2023-05-07T07:27:19;25.90;;;18.73;;
70455;SDS011;57916;51.996;5.180;2023-05-07T07:29:46;26.13;;;18.80;;
70455;SDS011;57916;51.996;5.180;2023-05-07T07:32:13;24.92;;;18.08;;
70455;SDS011;57916;51.996;5.180;2023-05-07T07:34:40;26.40;;;17.53;;
70455;SDS011;57916;51.996;5.180;2023-05-07T07:37:07;26.88;;;18.65;;
70455;SDS011;57916;51.996;5.180;2023-05-07T07:39:36;25.73;;;18.63;;
70455;SDS011;57916;51.996;5.180;2023-05-07T07:42:05;30.83;;;18.77;;
70455;SDS011;57916;51.996;5.180;2023-05-07T07:44:33;25.35;;;18.15;;
70455;SDS011;57916;51.996;5.180;2023-05-07T07:47:05;28.17;;;19.23;;
70455;SDS011;57916;51.996;5.180;2023-05-07T07:49:32;26.45;;;18.35;;
70455;SDS011;57916;51.996;5.180;2023-05-07T07:52:03;29.48;;;19.67;;
70455;SDS011;57916;51.996;5.180;2023-05-07T07:54:32;28.15;;;18.95;;
70455;SDS011;57916;51.996;5.180;2023-05-07T07:56:59;31.10;;;20.50;;
70455;SDS011;57916;51.996;5.180;2023-05-07T07:59:30;30.85;;;20.48;;
70455;SDS011;57916;51.996;5.180;2023-05-07T08:01:57;30.17;;;19.80;;
70455;SDS011;57916;51.996;5.180;2023-05-07T08:04:27;28.63;;;19.65;;
70455;SDS011;57916;51.996;5.180;2023-05-07T08:06:55;30.58;;;19.60;;
70455;SDS011;57916;51.996;5.180;2023-05-07T08:09:22;27.92;;;20.13;;
70455;SDS011;57916;51.996;5.180;2023-05-07T08:11:51;28.67;;;19.90;;
70455;SDS011;57916;51.996;5.180;2023-05-07T08:14:18;28.73;;;18.97;;
70455;SDS011;57916;51.996;5.180;2023-05-07T08:16:46;26.13;;;18.67;;
70455;SDS011;57916;51.996;5.180;2023-05-07T08:19:13;26.23;;;18.60;;
70455;SDS011;57916;51.996;5.180;2023-05-07T08:21:41;24.95;;;18.10;;
70455;SDS011;57916;51.996;5.180;2023-05-07T08:24:10;26.42;;;16.80;;
70455;SDS011;57916;51.996;5.180;2023-05-07T08:26:38;23.40;;;16.40;;
70455;SDS011;57916;51.996;5.180;2023-05-07T08:29:07;23.50;;;16.55;;
70455;SDS011;57916;51.996;5.180;2023-05-07T08:31:34;25.00;;;17.38;;
70455;SDS011;57916;51.996;5.180;2023-05-07T08:34:01;27.13;;;17.77;;
70455;SDS011;57916;51.996;5.180;2023-05-07T08:36:29;25.05;;;17.35;;
70455;SDS011;57916;51.996;5.180;2023-05-07T08:38:56;21.27;;;16.08;;
70455;SDS011;57916;51.996;5.180;2023-05-07T08:41:23;23.15;;;16.55;;
70455;SDS011;57916;51.996;5.180;2023-05-07T08:43:50;24.58;;;17.80;;
70455;SDS011;57916;51.996;5.180;2023-05-07T08:46:19;19.58;;;14.88;;
70455;SDS011;57916;51.996;5.180;2023-05-07T08:48:48;20.55;;;14.68;;
70455;SDS011;57916;51.996;5.180;2023-05-07T08:51:17;21.15;;;13.55;;
70455;SDS011;57916;51.996;5.180;2023-05-07T08:53:46;15.75;;;12.38;;
70455;SDS011;57916;51.996;5.180;2023-05-07T08:56:20;14.15;;;10.75;;
70455;SDS011;57916;51.996;5.180;2023-05-07T08:58:50;14.50;;;11.13;;
70455;SDS011;57916;51.996;5.180;2023-05-07T09:01:18;13.80;;;9.90;;
70455;SDS011;57916;51.996;5.180;2023-05-07T09:03:49;11.00;;;9.50;;
70455;SDS011;57916;51.996;5.180;2023-05-07T09:06:17;13.48;;;9.70;;
70455;SDS011;57916;51.996;5.180;2023-05-07T09:08:51;15.13;;;10.60;;
70455;SDS011;57916;51.996;5.180;2023-05-07T09:11:25;16.35;;;11.38;;
70455;SDS011;57916;51.996;5.180;2023-05-07T09:13:54;14.80;;;11.05;;
70455;SDS011;57916;51.996;5.180;2023-05-07T09:16:23;12.82;;;10.73;;
70455;SDS011;57916;51.996;5.180;2023-05-07T09:18:52;13.07;;;10.73;;
70455;SDS011;57916;51.996;5.180;2023-05-07T09:21:21;16.50;;;11.15;;
70455;SDS011;57916;51.996;5.180;2023-05-07T09:23:52;18.42;;;12.70;;
70455;SDS011;57916;51.996;5.180;2023-05-07T09:26:25;18.63;;;12.95;;
70455;SDS011;57916;51.996;5.180;2023-05-07T09:28:54;14.73;;;11.00;;
70455;SDS011;57916;51.996;5.180;2023-05-07T09:31:22;15.25;;;11.30;;
70455;SDS011;57916;51.996;5.180;2023-05-07T09:33:52;15.50;;;12.05;;
70455;SDS011;57916;51.996;5.180;2023-05-07T09:36:19;14.37;;;11.20;;
70455;SDS011;57916;51.996;5.180;2023-05-07T09:38:47;14.20;;;10.15;;
70455;SDS011;57916;51.996;5.180;2023-05-07T09:41:17;14.93;;;10.75;;
70455;SDS011;57916;51.996;5.180;2023-05-07T09:44:04;11.98;;;9.32;;
70455;SDS011;57916;51.996;5.180;2023-05-07T09:46:38;13.30;;;10.07;;
70455;SDS011;57916;51.996;5.180;2023-05-07T09:49:22;11.07;;;9.73;;
70455;SDS011;57916;51.996;5.180;2023-05-07T09:51:57;11.05;;;9.73;;
70455;SDS011;57916;51.996;5.180;2023-05-07T09:54:27;12.85;;;10.70;;
70455;SDS011;57916;51.996;5.180;2023-05-07T09:56:56;17.05;;;11.10;;
70455;SDS011;57916;51.996;5.180;2023-05-07T09:59:27;14.00;;;11.18;;
70455;SDS011;57916;51.996;5.180;2023-05-07T10:01:58;16.80;;;11.77;;
70455;SDS011;57916;51.996;5.180;2023-05-07T10:04:31;13.50;;;11.23;;
70455;SDS011;57916;51.996;5.180;2023-05-07T10:06:58;14.90;;;11.20;;
70455;SDS011;57916;51.996;5.180;2023-05-07T10:09:26;13.85;;;11.10;;
70455;SDS011;57916;51.996;5.180;2023-05-07T10:11:53;15.55;;;12.10;;
70455;SDS011;57916;51.996;5.180;2023-05-07T10:14:21;15.77;;;12.50;;
70455;SDS011;57916;51.996;5.180;2023-05-07T10:16:49;14.98;;;11.65;;
70455;SDS011;57916;51.996;5.180;2023-05-07T10:19:16;13.52;;;11.68;;
70455;SDS011;57916;51.996;5.180;2023-05-07T10:21:54;16.02;;;11.45;;
70455;SDS011;57916;51.996;5.180;2023-05-07T10:24:25;13.97;;;11.23;;
70455;SDS011;57916;51.996;5.180;2023-05-07T10:26:56;12.97;;;10.20;;
70455;SDS011;57916;51.996;5.180;2023-05-07T10:35:00;8.32;;;7.25;;
70455;SDS011;57916;51.996;5.180;2023-05-07T10:37:29;11.73;;;7.57;;
70455;SDS011;57916;51.996;5.180;2023-05-07T10:39:57;7.82;;;7.10;;
70455;SDS011;57916;51.996;5.180;2023-05-07T10:42:26;8.18;;;7.38;;
70455;SDS011;57916;51.996;5.180;2023-05-07T10:44:54;10.57;;;8.45;;
70455;SDS011;57916;51.996;5.180;2023-05-07T10:47:25;16.92;;;8.52;;
70455;SDS011;57916;51.996;5.180;2023-05-07T10:52:37;10.63;;;8.85;;
70455;SDS011;57916;51.996;5.180;2023-05-07T10:57:51;10.63;;;8.80;;
70455;SDS011;57916;51.996;5.180;2023-05-07T11:03:09;11.13;;;8.73;;
70455;SDS011;57916;51.996;5.180;2023-05-07T11:05:42;10.02;;;8.05;;
70455;SDS011;57916;51.996;5.180;2023-05-07T11:08:21;11.38;;;9.13;;
70455;SDS011;57916;51.996;5.180;2023-05-07T11:11:06;12.57;;;8.90;;
70455;SDS011;57916;51.996;5.180;2023-05-07T11:13:41;13.07;;;8.98;;
70455;SDS011;57916;51.996;5.180;2023-05-07T11:16:33;10.35;;;7.80;;
70455;SDS011;57916;51.996;5.180;2023-05-07T11:19:17;9.77;;;7.00;;
70455;SDS011;57916;51.996;5.180;2023-05-07T11:25:33;11.13;;;7.75;;
70455;SDS011;57916;51.996;5.180;2023-05-07T11:28:13;12.60;;;8.15;;
70455;SDS011;57916;51.996;5.180;2023-05-07T11:30:51;9.43;;;8.07;;
70455;SDS011;57916;51.996;5.180;2023-05-07T11:33:19;8.05;;;6.55;;
70455;SDS011;57916;51.996;5.180;2023-05-07T11:35:49;8.35;;;6.53;;
70455;SDS011;57916;51.996;5.180;2023-05-07T11:38:18;12.05;;;7.28;;
70455;SDS011;57916;51.996;5.180;2023-05-07T11:40:49;9.07;;;6.50;;
70455;SDS011;57916;51.996;5.180;2023-05-07T11:43:21;11.20;;;6.90;;
70455;SDS011;57916;51.996;5.180;2023-05-07T11:45:48;9.23;;;6.57;;
70455;SDS011;57916;51.996;5.180;2023-05-07T11:48:17;7.90;;;5.57;;
70455;SDS011;57916;51.996;5.180;2023-05-07T11:50:50;7.37;;;5.47;;
70455;SDS011;57916;51.996;5.180;2023-05-07T11:53:24;9.07;;;4.80;;
70455;SDS011;57916;51.996;5.180;2023-05-07T11:55:52;8.73;;;4.63;;
70455;SDS011;57916;51.996;5.180;2023-05-07T11:58:23;4.65;;;3.30;;
70455;SDS011;57916;51.996;5.180;2023-05-07T12:00:51;6.68;;;3.53;;
70455;SDS011;57916;51.996;5.180;2023-05-07T12:03:19;5.63;;;4.67;;
70455;SDS011;57916;51.996;5.180;2023-05-07T12:05:46;6.88;;;5.05;;
70455;SDS011;57916;51.996;5.180;2023-05-07T12:08:17;5.43;;;4.35;;
70455;SDS011;57916;51.996;5.180;2023-05-07T12:10:47;8.95;;;3.70;;
70455;SDS011;57916;51.996;5.180;2023-05-07T12:13:16;4.97;;;3.03;;
70455;SDS011;57916;51.996;5.180;2023-05-07T12:15:44;3.73;;;2.50;;
70455;SDS011;57916;51.996;5.180;2023-05-07T12:18:12;6.07;;;2.83;;
70455;SDS011;57916;51.996;5.180;2023-05-07T12:20:39;2.95;;;1.70;;
70455;SDS011;57916;51.996;5.180;2023-05-07T12:23:06;3.15;;;2.38;;
70455;SDS011;57916;51.996;5.180;2023-05-07T12:25:37;3.70;;;1.83;;
70455;SDS011;57916;51.996;5.180;2023-05-07T12:28:05;3.20;;;2.50;;
70455;SDS011;57916;51.996;5.180;2023-05-07T12:30:37;5.10;;;2.10;;
70455;SDS011;57916;51.996;5.180;2023-05-07T12:33:05;5.53;;;2.37;;
70455;SDS011;57916;51.996;5.180;2023-05-07T12:35:35;3.88;;;2.30;;
70455;SDS011;57916;51.996;5.180;2023-05-07T12:38:11;3.45;;;2.42;;
70455;SDS011;57916;51.996;5.180;2023-05-07T12:40:40;4.57;;;2.75;;
70455;SDS011;57916;51.996;5.180;2023-05-07T12:43:20;4.68;;;2.72;;
70455;SDS011;57916;51.996;5.180;2023-05-07T12:45:53;4.40;;;2.60;;
70455;SDS011;57916;51.996;5.180;2023-05-07T12:48:22;3.65;;;2.95;;
70455;SDS011;57916;51.996;5.180;2023-05-07T12:50:50;6.57;;;3.03;;
70455;SDS011;57916;51.996;5.180;2023-05-07T12:53:19;7.10;;;3.35;;
70455;SDS011;57916;51.996;5.180;2023-05-07T12:55:49;6.30;;;3.50;;
70455;SDS011;57916;51.996;5.180;2023-05-07T12:58:18;5.35;;;2.90;;
70455;SDS011;57916;51.996;5.180;2023-05-07T13:00:51;4.80;;;3.20;;
70455;SDS011;57916;51.996;5.180;2023-05-07T13:03:28;6.30;;;4.00;;
70455;SDS011;57916;51.996;5.180;2023-05-07T13:06:07;8.03;;;4.70;;
70455;SDS011;57916;51.996;5.180;2023-05-07T13:08:39;5.70;;;4.45;;
70455;SDS011;57916;51.996;5.180;2023-05-07T13:11:10;8.18;;;4.60;;
70455;SDS011;57916;51.996;5.180;2023-05-07T13:13:38;10.10;;;4.80;;
70455;SDS011;57916;51.996;5.180;2023-05-07T13:16:07;6.27;;;5.00;;
70455;SDS011;57916;51.996;5.180;2023-05-07T13:18:35;7.72;;;4.97;;
70455;SDS011;57916;51.996;5.180;2023-05-07T13:21:04;6.87;;;5.50;;
70455;SDS011;57916;51.996;5.180;2023-05-07T13:23:31;7.18;;;5.60;;
70455;SDS011;57916;51.996;5.180;2023-05-07T13:25:58;9.10;;;5.85;;
70455;SDS011;57916;51.996;5.180;2023-05-07T13:28:29;8.57;;;4.32;;
70455;SDS011;57916;51.996;5.180;2023-05-07T13:30:56;7.63;;;5.00;;
70455;SDS011;57916;51.996;5.180;2023-05-07T13:33:23;7.57;;;5.28;;
70455;SDS011;57916;51.996;5.180;2023-05-07T13:35:50;8.23;;;5.28;;
70455;SDS011;57916;51.996;5.180;2023-05-07T13:38:17;9.65;;;5.88;;
70455;SDS011;57916;51.996;5.180;2023-05-07T13:40:44;12.35;;;6.00;;
70455;SDS011;57916;51.996;5.180;2023-05-07T13:43:11;10.57;;;7.22;;
70455;SDS011;57916;51.996;5.180;2023-05-07T13:45:38;9.40;;;6.80;;
70455;SDS011;57916;51.996;5.180;2023-05-07T13:48:05;10.83;;;7.03;;
70455;SDS011;57916;51.996;5.180;2023-05-07T13:50:32;9.70;;;6.85;;
70455;SDS011;57916;51.996;5.180;2023-05-07T13:52:59;9.30;;;7.20;;
70455;SDS011;57916;51.996;5.180;2023-05-07T13:55:28;9.05;;;6.80;;
70455;SDS011;57916;51.996;5.180;2023-05-07T13:57:59;9.02;;;6.45;;
70455;SDS011;57916;51.996;5.180;2023-05-07T14:00:27;8.10;;;6.28;;
70455;SDS011;57916;51.996;5.180;2023-05-07T14:02:55;9.50;;;6.15;;
70455;SDS011;57916;51.996;5.180;2023-05-07T14:05:22;7.63;;;5.80;;
70455;SDS011;57916;51.996;5.180;2023-05-07T14:07:50;6.68;;;5.70;;
70455;SDS011;57916;51.996;5.180;2023-05-07T14:10:18;8.38;;;6.05;;
70455;SDS011;57916;51.996;5.180;2023-05-07T14:12:45;9.48;;;5.90;;
70455;SDS011;57916;51.996;5.180;2023-05-07T14:15:14;7.53;;;4.95;;
70455;SDS011;57916;51.996;5.180;2023-05-07T14:17:42;8.25;;;5.63;;
70455;SDS011;57916;51.996;5.180;2023-05-07T14:20:10;7.35;;;5.95;;
70455;SDS011;57916;51.996;5.180;2023-05-07T14:22:39;11.02;;;5.93;;
70455;SDS011;57916;51.996;5.180;2023-05-07T14:25:06;8.83;;;6.43;;
70455;SDS011;57916;51.996;5.180;2023-05-07T14:27:34;9.18;;;6.53;;
70455;SDS011;57916;51.996;5.180;2023-05-07T14:30:00;12.48;;;7.05;;
70455;SDS011;57916;51.996;5.180;2023-05-07T14:32:27;10.00;;;7.43;;
70455;SDS011;57916;51.996;5.180;2023-05-07T14:34:54;11.80;;;7.65;;
70455;SDS011;57916;51.996;5.180;2023-05-07T14:37:21;12.30;;;7.68;;
70455;SDS011;57916;51.996;5.180;2023-05-07T14:39:50;10.38;;;7.97;;
70455;SDS011;57916;51.996;5.180;2023-05-07T14:42:17;10.68;;;7.65;;
70455;SDS011;57916;51.996;5.180;2023-05-07T14:44:45;8.60;;;7.20;;
70455;SDS011;57916;51.996;5.180;2023-05-07T14:47:14;11.63;;;7.22;;
70455;SDS011;57916;51.996;5.180;2023-05-07T14:49:45;11.45;;;7.85;;
70455;SDS011;57916;51.996;5.180;2023-05-07T14:52:12;12.50;;;7.80;;
70455;SDS011;57916;51.996;5.180;2023-05-07T14:54:39;6.70;;;5.00;;
70455;SDS011;57916;51.996;5.180;2023-05-07T14:57:06;6.88;;;4.55;;